Time;durP1;ratioP1;P1;durP2;ratioP2;P2;SDS_P1;SDS_P2;PMS_P1;PMS_P2;Temp;Humidity;BMP_temperature;BMP_pressure;BME280_temperature;BME280_humidity;BME280_pressure;Samples;Min_cycle;Max_cycle;Signal;HPM_P1;HPM_P2
2022/08/17 00:01:37;;;;;;;39.80;36.60;;;20.90;99.90;;;;;;5033149;28;20494;-76
2022/08/17 00:04:20;;;;;;;37.87;34.77;;;21.00;99.90;;;;;;5034440;28;20461;-76
2022/08/17 00:06:49;;;;;;;35.30;32.30;;;20.90;99.90;;;;;;5034328;28;20450;-77
2022/08/17 00:09:18;;;;;;;36.53;33.47;;;20.90;99.90;;;;;;5034295;28;20519;-76
2022/08/17 00:11:48;;;;;;;37.40;33.87;;;20.80;99.90;;;;;;5034171;28;20443;-76
2022/08/17 00:14:37;;;;;;;37.47;34.37;;;20.90;99.90;;;;;;5032934;28;20589;-75
2022/08/17 00:17:05;;;;;;;36.20;33.30;;;20.80;99.90;;;;;;5032951;28;20550;-76
2022/08/17 00:19:33;;;;;;;35.97;33.03;;;20.80;99.90;;;;;;5032971;28;20517;-77
2022/08/17 00:22:05;;;;;;;40.37;36.57;;;20.80;99.90;;;;;;5034304;28;20494;-76
2022/08/17 00:24:53;;;;;;;35.23;32.33;;;20.80;99.90;;;;;;5034068;28;20571;-76
2022/08/17 00:27:22;;;;;;;39.97;36.23;;;20.70;99.90;;;;;;5034020;28;21006;-76
2022/08/17 00:29:51;;;;;;;36.50;33.70;;;20.70;99.90;;;;;;5034204;28;20937;-76
2022/08/17 00:32:19;;;;;;;35.90;33.00;;;20.70;99.90;;;;;;5034244;28;20525;-76
2022/08/17 00:35:11;;;;;;;37.53;34.50;;;20.70;99.90;;;;;;5034177;28;20831;-76
2022/08/17 00:37:40;;;;;;;37.97;34.67;;;20.60;99.90;;;;;;5032532;28;20463;-76
2022/08/17 00:40:10;;;;;;;38.53;35.53;;;20.60;99.90;;;;;;5032458;28;20933;-76
2022/08/17 00:42:39;;;;;;;37.30;34.27;;;20.60;99.90;;;;;;5034164;28;20859;-76
2022/08/17 00:45:11;;;;;;;40.93;37.53;;;20.60;99.90;;;;;;5033758;28;20826;-76
2022/08/17 00:47:40;;;;;;;40.77;37.37;;;20.50;99.90;;;;;;5033733;28;20450;-77
2022/08/17 00:50:11;;;;;;;39.50;36.10;;;20.50;99.90;;;;;;5034000;28;20497;-76
2022/08/17 00:52:45;;;;;;;40.50;36.97;;;20.50;99.90;;;;;;5032571;28;20478;-77
2022/08/17 00:55:13;;;;;;;39.63;36.33;;;20.50;99.90;;;;;;5034107;28;20427;-76
2022/08/17 00:57:44;;;;;;;39.20;35.97;;;20.40;99.90;;;;;;5033414;28;20962;-77
2022/08/17 01:00:20;;;;;;;44.43;40.47;;;20.40;99.90;;;;;;5032364;28;20545;-76
2022/08/17 01:02:48;;;;;;;42.90;39.30;;;20.40;99.90;;;;;;5033587;28;20423;-77
2022/08/17 01:05:20;;;;;;;42.93;39.23;;;20.30;99.90;;;;;;5032076;28;20840;-77
2022/08/17 01:07:50;;;;;;;43.43;40.00;;;20.30;99.90;;;;;;5033368;28;20446;-76
2022/08/17 01:10:22;;;;;;;42.43;39.03;;;20.30;99.90;;;;;;5033559;28;20920;-76
2022/08/17 01:13:12;;;;;;;44.83;40.63;;;20.30;99.90;;;;;;5033794;28;20434;-76
2022/08/17 01:15:46;;;;;;;44.20;40.33;;;20.30;99.90;;;;;;5033505;28;20561;-76
2022/08/17 01:18:15;;;;;;;43.20;39.53;;;20.20;99.90;;;;;;5033692;28;20435;-76
2022/08/17 01:20:47;;;;;;;41.27;37.67;;;20.20;99.90;;;;;;5032108;28;20547;-76
2022/08/17 01:23:19;;;;;;;44.00;40.40;;;20.20;99.90;;;;;;5033928;28;20439;-76
2022/08/17 01:25:50;;;;;;;43.50;39.67;;;20.20;99.90;;;;;;5033443;28;20579;-77
2022/08/17 01:28:20;;;;;;;42.60;38.83;;;20.20;99.90;;;;;;5033521;28;20433;-77
2022/08/17 01:31:12;;;;;;;46.10;41.87;;;20.10;99.90;;;;;;5032189;28;20826;-77
2022/08/17 01:33:40;;;;;;;45.03;41.00;;;20.10;99.90;;;;;;5033766;28;20438;-76
2022/08/17 01:36:09;;;;;;;44.80;40.70;;;20.10;99.90;;;;;;5033279;28;20459;-76
2022/08/17 01:38:39;;;;;;;41.93;38.30;;;20.10;99.90;;;;;;5031813;28;20485;-76
2022/08/17 01:41:11;;;;;;;41.73;38.40;;;20.10;99.90;;;;;;5031792;28;20986;-76
2022/08/17 01:43:44;;;;;;;45.73;41.90;;;20.10;99.90;;;;;;5032008;28;20441;-76
2022/08/17 01:46:16;;;;;;;43.63;39.93;;;20.00;99.90;;;;;;5033272;28;21026;-75
2022/08/17 01:48:46;;;;;;;45.10;41.20;;;20.00;99.90;;;;;;5031828;28;20852;-76
2022/08/17 01:51:15;;;;;;;43.60;39.80;;;20.00;99.90;;;;;;5032950;28;20450;-76
2022/08/17 01:53:48;;;;;;;46.17;42.30;;;20.00;99.90;;;;;;5032972;28;20434;-76
2022/08/17 01:56:19;;;;;;;45.47;41.77;;;20.00;99.90;;;;;;5033115;28;20830;-76
2022/08/17 01:58:48;;;;;;;45.20;41.33;;;19.90;99.90;;;;;;5031661;28;20470;-76
2022/08/17 02:01:18;;;;;;;43.73;40.17;;;19.90;99.90;;;;;;5031773;28;20449;-75
2022/08/17 02:03:46;;;;;;;48.00;43.33;;;19.90;99.90;;;;;;5032266;28;20442;-76
2022/08/17 02:06:29;;;;;;;46.40;42.10;;;19.90;99.90;;;;;;5031555;28;20493;-76
2022/08/17 02:09:01;;;;;;;44.60;40.20;;;19.90;99.90;;;;;;5035610;28;20425;-76
2022/08/17 02:11:33;;;;;;;45.60;41.73;;;19.90;99.90;;;;;;5036598;28;20771;-76
2022/08/17 02:14:01;;;;;;;46.70;42.97;;;19.80;99.90;;;;;;5036821;28;20419;-76
2022/08/17 02:16:32;;;;;;;48.27;43.87;;;19.80;99.90;;;;;;5035255;28;20471;-76
2022/08/17 02:19:07;;;;;;;47.67;43.37;;;19.80;99.90;;;;;;5037001;28;20754;-76
2022/08/17 02:21:36;;;;;;;50.50;46.10;;;19.80;99.90;;;;;;5035183;28;20479;-76
2022/08/17 02:24:08;;;;;;;45.40;41.10;;;19.80;99.90;;;;;;5034964;28;20461;-76
2022/08/17 02:26:36;;;;;;;47.70;43.30;;;19.70;99.90;;;;;;5036664;28;20554;-75
2022/08/17 02:29:06;;;;;;;47.40;43.30;;;19.70;99.90;;;;;;5036221;28;20434;-77
2022/08/17 02:31:34;;;;;;;46.13;42.40;;;19.70;99.90;;;;;;5034961;28;20442;-75
2022/08/17 02:34:02;;;;;;;47.33;43.30;;;19.70;99.90;;;;;;5034996;28;20493;-76
2022/08/17 02:36:34;;;;;;;46.40;42.40;;;19.70;99.90;;;;;;5035990;28;20463;-77
2022/08/17 02:39:02;;;;;;;46.27;42.23;;;19.70;99.90;;;;;;5037466;28;20514;-76
2022/08/17 02:41:32;;;;;;;46.93;42.70;;;19.60;99.90;;;;;;5035554;28;20827;-76
2022/08/17 02:44:00;;;;;;;46.93;42.63;;;19.60;99.90;;;;;;5036205;28;20458;-76
2022/08/17 02:46:29;;;;;;;46.50;42.50;;;19.60;99.90;;;;;;5037549;28;20479;-76
2022/08/17 02:48:58;;;;;;;46.37;42.27;;;19.60;99.90;;;;;;5035207;28;20550;-76
2022/08/17 02:51:27;;;;;;;46.77;42.77;;;19.60;99.90;;;;;;5036524;28;20431;-76
2022/08/17 02:53:55;;;;;;;46.20;42.37;;;19.60;99.90;;;;;;5036180;28;20438;-76
2022/08/17 02:56:44;;;;;;;45.87;41.90;;;19.60;99.90;;;;;;5034572;28;20513;-76
2022/08/17 02:59:13;;;;;;;43.17;39.57;;;19.60;99.90;;;;;;5034412;28;20453;-76
2022/08/17 03:01:41;;;;;;;43.53;39.90;;;19.50;99.90;;;;;;5035713;28;20541;-77
2022/08/17 03:04:09;;;;;;;43.40;39.70;;;19.50;99.90;;;;;;5035829;28;20435;-76
2022/08/17 03:06:37;;;;;;;44.27;40.37;;;19.50;99.90;;;;;;5035389;28;20565;-76
2022/08/17 03:09:05;;;;;;;45.50;41.60;;;19.50;99.90;;;;;;5035766;28;20851;-76
2022/08/17 03:11:34;;;;;;;46.40;42.53;;;19.50;99.90;;;;;;5035687;28;20445;-76
2022/08/17 03:14:03;;;;;;;45.30;41.50;;;19.40;99.90;;;;;;5035372;28;20492;-76
2022/08/17 03:16:32;;;;;;;47.57;43.50;;;19.40;99.90;;;;;;5035388;28;20538;-76
2022/08/17 03:19:01;;;;;;;45.33;41.53;;;19.40;99.90;;;;;;5034172;28;20534;-76
2022/08/17 03:21:29;;;;;;;47.07;42.97;;;19.40;99.90;;;;;;5033482;28;20827;-77
2022/08/17 03:23:58;;;;;;;51.23;46.73;;;19.40;99.90;;;;;;5035216;28;20486;-76
2022/08/17 03:26:26;;;;;;;52.93;48.10;;;19.30;99.90;;;;;;5035031;28;20569;-76
2022/08/17 03:28:57;;;;;;;46.30;42.30;;;19.30;99.90;;;;;;5035187;28;20862;-76
2022/08/17 03:31:27;;;;;;;48.30;44.20;;;19.30;99.90;;;;;;5034181;28;20450;-75
2022/08/17 03:33:55;;;;;;;46.43;42.43;;;19.30;99.90;;;;;;5035320;28;20447;-76
2022/08/17 03:36:23;;;;;;;48.47;44.47;;;19.30;99.90;;;;;;5034885;28;20998;-77
2022/08/17 03:38:51;;;;;;;46.73;42.60;;;19.20;99.90;;;;;;5035010;28;20463;-76
2022/08/17 03:41:21;;;;;;;49.23;44.83;;;19.20;99.90;;;;;;5033834;28;20509;-76
2022/08/17 03:43:49;;;;;;;51.17;46.30;;;19.20;99.90;;;;;;5034906;28;20442;-77
2022/08/17 03:57:25;;;;;;;55.30;50.10;;;19.20;99.90;;;;;;5033362;28;21054;-76
2022/08/17 03:59:54;;;;;;;52.87;48.27;;;19.20;99.90;;;;;;5034991;28;20848;-76
2022/08/17 04:02:26;;;;;;;51.47;46.97;;;19.10;99.90;;;;;;5034609;28;20447;-77
2022/08/17 04:04:56;;;;;;;53.93;49.33;;;19.10;99.90;;;;;;5033288;28;20431;-75
2022/08/17 04:07:26;;;;;;;55.50;50.47;;;19.20;99.90;;;;;;5034279;28;20570;-75
2022/08/17 04:09:54;;;;;;;54.40;49.80;;;19.10;99.90;;;;;;5035232;28;20832;-77
2022/08/17 04:12:24;;;;;;;61.40;55.63;;;19.10;99.90;;;;;;5034415;28;20447;-77
2022/08/17 04:14:52;;;;;;;58.13;52.77;;;19.10;99.90;;;;;;5033125;28;20451;-76
2022/08/17 04:17:24;;;;;;;61.27;55.47;;;19.10;99.90;;;;;;5032941;28;20463;-76
2022/08/17 04:19:53;;;;;;;59.00;53.37;;;19.10;99.90;;;;;;5034697;28;20420;-76
2022/08/17 04:22:23;;;;;;;61.00;55.10;;;19.10;99.90;;;;;;5034211;28;20479;-76
2022/08/17 04:25:04;;;;;;;61.33;55.70;;;19.10;99.90;;;;;;5034109;28;20451;-77
2022/08/17 04:27:33;;;;;;;60.90;55.30;;;19.10;99.90;;;;;;5034399;28;20475;-76
2022/08/17 04:30:01;;;;;;;57.57;52.10;;;19.10;99.90;;;;;;5033945;28;20514;-76
2022/08/17 04:32:30;;;;;;;58.50;52.83;;;19.10;99.90;;;;;;5034489;28;20435;-76
2022/08/17 04:35:20;;;;;;;58.83;53.33;;;19.10;99.90;;;;;;5034432;28;20518;-77
2022/08/17 04:37:50;;;;;;;57.87;52.67;;;19.10;99.90;;;;;;5034391;28;20525;-76
2022/08/17 04:43:07;;;;;;;58.90;53.40;;;19.10;99.90;;;;;;5034094;28;20458;-77
2022/08/17 04:45:40;;;;;;;58.37;52.97;;;19.10;99.90;;;;;;5034046;28;20435;-77
2022/08/17 04:48:25;;;;;;;58.47;52.90;;;19.20;99.90;;;;;;5033991;28;20415;-76
2022/08/17 04:51:06;;;;;;;59.27;53.40;;;19.20;99.90;;;;;;5033845;28;20423;-77
2022/08/17 04:53:36;;;;;;;60.67;54.90;;;19.20;99.90;;;;;;5032602;28;20494;-76
2022/08/17 04:56:04;;;;;;;56.13;51.03;;;19.20;99.90;;;;;;5033730;28;20530;-76
2022/08/17 04:58:33;;;;;;;61.77;55.97;;;19.20;99.90;;;;;;5032306;28;20447;-76
2022/08/17 05:01:01;;;;;;;60.53;54.83;;;19.20;99.90;;;;;;5033650;28;20474;-77
2022/08/17 05:03:30;;;;;;;58.77;53.07;;;19.30;99.90;;;;;;5033420;28;20959;-76
2022/08/17 05:05:58;;;;;;;58.50;53.03;;;19.30;99.90;;;;;;5032089;28;20471;-77
2022/08/17 05:08:26;;;;;;;58.07;52.40;;;19.30;99.90;;;;;;5034282;28;20530;-77
2022/08/17 05:10:55;;;;;;;60.93;55.43;;;19.30;99.90;;;;;;5033983;28;20549;-77
2022/08/17 05:13:26;;;;;;;57.57;51.77;;;19.40;99.90;;;;;;5033742;28;20948;-76
2022/08/17 05:15:56;;;;;;;65.47;59.37;;;19.40;99.90;;;;;;5033537;28;20516;-76
2022/08/17 05:18:25;;;;;;;62.87;56.87;;;19.40;99.90;;;;;;5034179;28;20820;-77
2022/08/17 05:20:53;;;;;;;63.40;57.00;;;19.50;99.90;;;;;;5032858;28;20447;-77
2022/08/17 05:23:23;;;;;;;62.27;56.33;;;19.50;99.90;;;;;;5034168;28;20990;-77
2022/08/17 05:25:54;;;;;;;62.50;56.50;;;19.50;99.90;;;;;;5032764;28;20450;-77
2022/08/17 05:28:27;;;;;;;63.50;57.30;;;19.60;99.90;;;;;;5032587;28;20921;-76
2022/08/17 05:30:59;;;;;;;64.07;57.57;;;19.60;99.90;;;;;;5033946;28;20519;-76
2022/08/17 05:33:30;;;;;;;64.17;58.27;;;19.60;99.90;;;;;;5033300;28;20419;-76
2022/08/17 05:36:00;;;;;;;64.27;58.33;;;19.70;99.90;;;;;;5033326;28;20454;-76
2022/08/17 05:38:29;;;;;;;62.50;56.80;;;19.70;99.90;;;;;;5033577;28;20889;-76
2022/08/17 05:40:58;;;;;;;64.50;58.40;;;19.70;99.90;;;;;;5033389;28;20875;-76
2022/08/17 05:43:30;;;;;;;63.63;57.47;;;19.80;99.90;;;;;;5034780;28;20443;-76
2022/08/17 05:46:03;;;;;;;63.37;57.67;;;19.80;99.90;;;;;;5037293;28;20454;-75
2022/08/17 05:48:36;;;;;;;62.70;56.80;;;19.80;99.90;;;;;;5037805;28;20423;-77
2022/08/17 05:51:31;;;;;;;64.73;58.83;;;19.90;99.90;;;;;;5035948;28;20449;-76
2022/08/17 05:54:15;;;;;;;63.83;57.73;;;19.90;99.90;;;;;;5037125;28;20863;-76
2022/08/17 05:57:07;;;;;;;60.80;55.10;;;19.90;99.90;;;;;;5035834;28;21018;-76
2022/08/17 05:59:47;;;;;;;60.73;55.00;;;20.00;99.90;;;;;;5036859;28;20501;-76
2022/08/17 06:02:21;;;;;;;61.37;55.83;;;20.00;99.90;;;;;;5035551;28;20443;-77
2022/08/17 06:05:10;;;;;;;57.97;52.57;;;20.10;99.90;;;;;;5035771;28;20446;-76
2022/08/17 06:07:48;;;;;;;60.50;54.90;;;20.10;99.90;;;;;;5036956;28;20561;-77
2022/08/17 06:10:26;;;;;;;61.87;56.43;;;20.20;99.90;;;;;;5037556;28;20458;-77
2022/08/17 06:13:05;;;;;;;61.03;55.23;;;20.30;99.90;;;;;;5035395;28;20963;-77
2022/08/17 06:15:44;;;;;;;61.40;55.50;;;20.30;99.90;;;;;;5035409;28;20469;-77
2022/08/17 06:18:12;;;;;;;59.80;54.33;;;20.40;99.90;;;;;;5036994;28;20450;-76
2022/08/17 06:20:51;;;;;;;59.87;53.97;;;20.40;99.90;;;;;;5036868;28;20419;-76
2022/08/17 06:23:26;;;;;;;61.20;55.90;;;20.50;99.90;;;;;;5036685;28;20848;-76
2022/08/17 06:26:02;;;;;;;58.63;53.43;;;20.60;99.90;;;;;;5037010;28;20461;-77
2022/08/17 06:28:37;;;;;;;64.57;58.40;;;20.70;99.90;;;;;;5037467;28;20462;-77
2022/08/17 06:31:18;;;;;;;59.50;54.03;;;20.70;99.90;;;;;;5037669;28;20419;-77
2022/08/17 06:33:47;;;;;;;61.27;55.70;;;20.80;99.90;;;;;;5036479;28;20423;-76
2022/08/17 06:36:29;;;;;;;59.73;54.37;;;20.80;99.90;;;;;;5037055;28;20459;-77
2022/08/17 06:39:09;;;;;;;62.87;57.07;;;20.90;99.90;;;;;;5036937;28;20553;-76
2022/08/17 06:41:48;;;;;;;59.43;54.07;;;21.00;99.90;;;;;;5036628;28;20431;-76
2022/08/17 06:44:20;;;;;;;55.90;50.90;;;21.00;99.90;;;;;;5036556;28;20433;-77
2022/08/17 06:47:14;;;;;;;61.20;55.73;;;21.10;99.90;;;;;;5036220;28;20573;-76
2022/08/17 06:50:14;;;;;;;60.37;55.07;;;21.20;99.90;;;;;;5035341;28;20438;-77
2022/08/17 06:52:51;;;;;;;58.47;53.43;;;21.20;99.90;;;;;;5035287;28;20439;-78
2022/08/17 06:55:25;;;;;;;55.57;50.77;;;21.30;99.90;;;;;;5034931;28;20462;-76
2022/08/17 06:57:57;;;;;;;59.87;54.43;;;21.30;99.90;;;;;;5036141;28;20948;-78
2022/08/17 07:00:32;;;;;;;56.30;51.27;;;21.40;99.90;;;;;;5036380;28;20421;-76
2022/08/17 07:03:09;;;;;;;58.20;53.20;;;21.40;99.90;;;;;;5036103;28;20893;-77
2022/08/17 07:05:44;;;;;;;57.57;52.63;;;21.50;99.90;;;;;;5036656;28;20552;-77
2022/08/17 07:08:18;;;;;;;56.20;51.20;;;21.60;99.90;;;;;;5036428;28;20889;-76
2022/08/17 07:10:49;;;;;;;54.73;50.10;;;21.70;99.90;;;;;;5034573;28;20979;-76
2022/08/17 07:13:29;;;;;;;56.10;51.20;;;21.90;99.90;;;;;;5036102;28;20462;-78
2022/08/17 07:16:16;;;;;;;52.43;47.57;;;22.10;99.90;;;;;;5036428;28;20532;-77
2022/08/17 07:18:46;;;;;;;54.63;49.73;;;22.20;99.90;;;;;;5034579;28;20517;-76
2022/08/17 07:21:24;;;;;;;52.80;48.40;;;22.40;99.90;;;;;;5035039;28;20867;-76
2022/08/17 07:24:19;;;;;;;52.43;48.00;;;22.50;99.90;;;;;;5036615;28;20450;-76
2022/08/17 07:27:07;;;;;;;57.40;52.30;;;22.70;99.90;;;;;;5037302;28;20505;-79
2022/08/17 07:29:43;;;;;;;51.80;47.40;;;22.90;99.90;;;;;;5036912;28;20443;-79
2022/08/17 07:32:17;;;;;;;51.53;47.07;;;23.00;99.90;;;;;;5035818;28;20450;-77
2022/08/17 07:35:18;;;;;;;48.90;44.97;;;23.00;99.90;;;;;;5036571;28;20439;-78
2022/08/17 07:37:51;;;;;;;52.53;48.20;;;23.20;99.90;;;;;;4978666;28;20862;-77
2022/08/17 07:40:30;;;;;;;51.10;47.10;;;23.20;99.90;;;;;;5025205;28;20501;-77
2022/08/17 07:43:17;;;;;;;51.27;46.87;;;23.30;99.90;;;;;;5036221;28;20438;-77
2022/08/17 07:48:51;;;;;;;48.17;44.27;;;23.50;99.90;;;;;;5036628;28;20956;-77
2022/08/17 07:51:25;;;;;;;49.17;45.00;;;23.50;99.90;;;;;;5036244;28;20510;-78
2022/08/17 07:53:55;;;;;;;47.87;43.83;;;23.60;99.90;;;;;;5036698;28;20818;-76
2022/08/17 07:56:45;;;;;;;49.70;45.57;;;23.60;99.90;;;;;;5035932;28;20479;-76
2022/08/17 07:59:16;;;;;;;49.90;45.70;;;23.60;99.90;;;;;;5036062;28;20416;-76
2022/08/17 08:02:04;;;;;;;46.50;42.80;;;23.60;99.90;;;;;;5035700;28;20880;-77
2022/08/17 08:04:36;;;;;;;44.13;40.50;;;23.70;99.90;;;;;;5034081;28;20493;-79
2022/08/17 08:07:30;;;;;;;43.70;40.17;;;23.70;99.90;;;;;;5033955;28;20470;-77
2022/08/17 08:10:07;;;;;;;44.23;40.43;;;23.80;99.90;;;;;;5034863;28;20455;-78
2022/08/17 08:12:38;;;;;;;45.70;41.97;;;23.90;99.90;;;;;;5035214;28;20542;-77
2022/08/17 08:15:17;;;;;;;42.80;39.10;;;24.00;99.90;;;;;;5035319;28;20586;-78
2022/08/17 08:17:51;;;;;;;44.10;40.47;;;24.20;99.90;;;;;;5035034;28;20439;-77
2022/08/17 08:20:27;;;;;;;42.07;38.70;;;24.30;99.90;;;;;;5034949;28;20833;-77
2022/08/17 08:23:26;;;;;;;41.93;38.43;;;24.50;99.90;;;;;;5034532;28;20446;-78
2022/08/17 08:26:07;;;;;;;41.57;38.27;;;24.70;99.90;;;;;;5034781;28;20459;-78
2022/08/17 08:28:45;;;;;;;38.47;35.17;;;25.00;99.90;;;;;;5034415;28;20486;-77
2022/08/17 08:31:23;;;;;;;38.20;35.30;;;25.10;99.90;;;;;;5034923;28;20469;-79
2022/08/17 08:34:02;;;;;;;37.53;34.10;;;25.20;99.90;;;;;;5035313;28;20423;-77
2022/08/17 08:36:42;;;;;;;39.17;36.03;;;25.30;99.90;;;;;;5036185;28;20458;-78
2022/08/17 08:39:40;;;;;;;37.77;34.67;;;25.40;99.90;;;;;;5034371;28;20541;-78
2022/08/17 08:42:23;;;;;;;36.60;33.80;;;25.50;99.90;;;;;;5035936;28;20450;-76
2022/08/17 08:45:04;;;;;;;33.40;30.60;;;25.60;99.90;;;;;;5034083;28;20933;-76
2022/08/17 08:47:51;;;;;;;34.40;31.80;;;25.70;99.90;;;;;;5035387;28;20465;-77
2022/08/17 08:50:27;;;;;;;35.10;32.07;;;25.80;99.90;;;;;;5035729;28;20422;-77
2022/08/17 08:53:20;;;;;;;33.53;30.70;;;26.00;99.90;;;;;;5034092;28;20442;-77
2022/08/17 08:55:54;;;;;;;28.53;26.40;;;26.10;99.90;;;;;;5034620;28;20467;-77
2022/08/17 08:58:34;;;;;;;31.00;28.47;;;26.20;99.90;;;;;;5035698;28;20426;-78
2022/08/17 09:01:19;;;;;;;32.70;30.03;;;26.30;99.90;;;;;;5035342;28;20422;-77
2022/08/17 09:04:04;;;;;;;31.07;28.50;;;26.50;99.90;;;;;;5035340;28;20450;-76
2022/08/17 09:07:01;;;;;;;29.67;27.47;;;26.60;99.90;;;;;;5033980;28;20516;-78
2022/08/17 09:09:40;;;;;;;30.13;27.57;;;26.70;99.90;;;;;;5033948;28;20473;-77
2022/08/17 09:12:21;;;;;;;30.37;27.90;;;26.80;99.90;;;;;;5033798;28;20849;-77
2022/08/17 09:14:56;;;;;;;29.47;27.00;;;26.80;99.90;;;;;;5033439;28;20788;-77
2022/08/17 09:17:35;;;;;;;32.00;29.20;;;26.80;99.90;;;;;;5034709;28;20976;-76
2022/08/17 09:20:10;;;;;;;28.40;26.30;;;26.90;99.90;;;;;;5033803;28;20438;-77
2022/08/17 09:22:58;;;;;;;25.20;23.10;;;26.90;99.90;;;;;;5034772;28;20457;-78
2022/08/17 09:25:31;;;;;;;26.80;24.67;;;26.90;99.90;;;;;;5034960;28;20828;-77
2022/08/17 09:28:04;;;;;;;28.00;25.70;;;27.00;99.90;;;;;;5033324;28;20474;-77
2022/08/17 09:30:42;;;;;;;28.53;26.53;;;27.10;99.90;;;;;;5035329;28;20845;-77
2022/08/17 09:33:14;;;;;;;24.73;22.90;;;27.30;99.90;;;;;;5032908;28;20438;-75
2022/08/17 09:35:47;;;;;;;26.97;24.97;;;27.40;99.90;;;;;;5034705;28;20455;-76
2022/08/17 09:38:22;;;;;;;21.60;20.10;;;27.50;99.90;;;;;;5034791;28;20430;-77
2022/08/17 09:40:57;;;;;;;23.87;21.77;;;27.60;99.90;;;;;;5034846;28;20457;-77
2022/08/17 09:43:37;;;;;;;25.03;22.90;;;27.80;99.90;;;;;;5034559;28;20514;-76
2022/08/17 09:46:11;;;;;;;28.03;25.93;;;27.80;99.90;;;;;;5036013;28;20538;-76
2022/08/17 09:48:44;;;;;;;25.20;23.00;;;27.80;99.90;;;;;;5034331;28;20553;-77
2022/08/17 09:51:21;;;;;;;26.23;24.27;;;27.80;99.90;;;;;;5032527;28;20529;-76
2022/08/17 09:53:50;;;;;;;25.87;23.47;;;27.70;99.90;;;;;;5034777;28;20522;-76
2022/08/17 09:56:37;;;;;;;25.50;23.47;;;27.80;99.90;;;;;;5032955;28;20494;-77
2022/08/17 09:59:38;;;;;;;26.60;24.57;;;27.80;99.90;;;;;;5032710;28;20483;-78
2022/08/17 10:02:30;;;;;;;26.40;24.43;;;27.90;99.90;;;;;;5032739;28;20995;-77
2022/08/17 10:05:04;;;;;;;22.87;21.17;;;28.00;99.90;;;;;;5034179;28;20510;-76
2022/08/17 10:07:40;;;;;;;27.23;25.23;;;28.20;99.90;;;;;;5034252;28;20459;-77
2022/08/17 10:10:15;;;;;;;29.97;27.40;;;28.20;99.90;;;;;;5034664;28;20494;-77
2022/08/17 10:12:49;;;;;;;27.40;25.30;;;28.30;99.90;;;;;;5034197;28;20422;-76
2022/08/17 10:15:35;;;;;;;24.70;22.53;;;28.30;99.90;;;;;;5032220;28;20804;-77
2022/08/17 10:18:17;;;;;;;26.27;24.37;;;28.30;99.90;;;;;;5032333;28;20450;-77
2022/08/17 10:26:11;;;;;;;24.40;22.50;;;28.40;99.90;;;;;;5034384;28;20510;-77
2022/08/17 10:26:36;;;;;;;23.33;21.53;;;28.40;99.90;;;;;;5002802;28;20879;-79
2022/08/17 10:29:31;;;;;;;22.17;20.47;;;28.40;99.90;;;;;;5035283;28;20509;-77
2022/08/17 10:32:37;;;;;;;21.13;19.30;;;28.50;99.90;;;;;;5038946;28;20503;-77
2022/08/17 10:35:32;;;;;;;25.10;23.10;;;28.50;99.90;;;;;;5038298;28;20486;-77
2022/08/17 10:38:24;;;;;;;24.73;22.73;;;28.60;99.90;;;;;;5023371;28;20459;-76
2022/08/17 10:40:57;;;;;;;22.53;20.63;;;28.60;99.90;;;;;;5037476;28;20972;-77
2022/08/17 10:43:35;;;;;;;22.40;20.57;;;28.70;99.90;;;;;;5037226;28;20470;-77
2022/08/17 10:46:12;;;;;;;19.73;18.23;;;28.70;99.90;;;;;;5037209;28;20968;-75
2022/08/17 10:49:28;;;;;;;18.40;17.00;;;28.70;99.90;;;;;;5036542;28;20459;-76
2022/08/17 10:51:58;;;;;;;21.00;19.50;;;28.70;99.90;;;;;;5036450;28;20415;-77
2022/08/17 10:54:39;;;;;;;22.00;20.30;;;28.80;99.90;;;;;;5036452;28;20959;-76
2022/08/17 10:57:37;;;;;;;18.97;17.37;;;28.80;99.90;;;;;;5036209;28;20562;-76
2022/08/17 11:00:13;;;;;;;20.43;18.70;;;28.90;99.90;;;;;;5036256;28;20516;-76
2022/08/17 11:02:50;;;;;;;22.67;20.60;;;29.00;99.90;;;;;;5036362;28;20823;-78
2022/08/17 11:05:43;;;;;;;20.77;19.10;;;29.10;99.90;;;;;;5036778;28;20790;-77
2022/08/17 11:08:44;;;;;;;21.03;19.17;;;29.10;99.90;;;;;;5036160;28;20877;-78
2022/08/17 11:11:34;;;;;;;21.07;19.20;;;29.20;99.90;;;;;;5036550;28;20423;-77
2022/08/17 11:14:25;;;;;;;18.93;17.53;;;29.20;99.90;;;;;;5036102;28;20429;-77
2022/08/17 11:17:10;;;;;;;18.53;16.73;;;29.30;99.90;;;;;;5035817;28;20486;-76
2022/08/17 11:20:08;;;;;;;17.60;16.30;;;29.40;99.90;;;;;;5036315;28;20442;-77
2022/08/17 11:23:06;;;;;;;17.77;16.40;;;29.40;99.90;;;;;;5035965;28;20924;-77
2022/08/17 11:25:38;;;;;;;15.53;14.23;;;29.50;99.90;;;;;;5036142;28;20538;-78
2022/08/17 11:28:13;;;;;;;14.43;13.37;;;29.50;99.90;;;;;;5035692;28;20434;-76
2022/08/17 11:30:49;;;;;;;14.00;12.90;;;29.70;99.90;;;;;;5036144;28;20458;-77
2022/08/17 11:33:56;;;;;;;13.07;11.90;;;29.70;99.90;;;;;;5035018;28;20431;-76
2022/08/17 11:36:47;;;;;;;9.00;8.40;;;29.80;99.60;;;;;;5034292;28;20598;-76
2022/08/17 11:39:30;;;;;;;8.60;7.90;;;29.90;98.90;;;;;;5035855;28;20419;-77
2022/08/17 11:42:05;;;;;;;8.53;7.83;;;30.00;98.40;;;;;;5035363;28;20425;-77
2022/08/17 11:44:45;;;;;;;8.03;7.23;;;30.00;97.50;;;;;;5034069;28;20954;-78
2022/08/17 11:53:44;;;;;;;8.67;7.90;;;30.20;95.70;;;;;;5035582;28;20450;-76
2022/08/17 11:56:31;;;;;;;9.97;9.20;;;30.20;95.40;;;;;;5035341;28;20472;-76
2022/08/17 11:59:00;;;;;;;8.43;7.67;;;30.20;94.80;;;;;;5033600;28;20467;-76
2022/08/17 12:01:54;;;;;;;9.57;7.80;;;30.20;94.60;;;;;;5033884;28;21002;-76
2022/08/17 12:04:28;;;;;;;7.73;7.00;;;30.20;93.90;;;;;;5033728;28;20436;-77
2022/08/17 12:07:00;;;;;;;8.00;7.40;;;30.20;93.80;;;;;;5035031;28;20995;-77
2022/08/17 12:09:31;;;;;;;8.53;7.60;;;30.30;93.80;;;;;;5033992;28;20505;-78
2022/08/17 12:12:04;;;;;;;7.70;7.20;;;30.30;93.70;;;;;;5036340;28;20423;-77
2022/08/17 12:14:48;;;;;;;7.47;6.97;;;30.30;93.40;;;;;;5035482;28;20439;-78
2022/08/17 12:17:36;;;;;;;7.40;6.70;;;30.30;92.90;;;;;;5035331;28;20554;-77
2022/08/17 12:20:22;;;;;;;8.27;6.90;;;30.40;92.30;;;;;;5035166;28;20416;-77
2022/08/17 12:23:03;;;;;;;7.40;6.90;;;30.40;91.90;;;;;;5034564;28;20431;-76
2022/08/17 12:25:37;;;;;;;6.83;6.13;;;30.40;91.80;;;;;;5034481;28;20439;-78
2022/08/17 12:28:21;;;;;;;7.20;6.70;;;30.50;91.70;;;;;;5035049;28;20494;-76
2022/08/17 12:30:51;;;;;;;7.20;6.50;;;30.60;91.40;;;;;;5034826;28;20458;-78
2022/08/17 12:33:24;;;;;;;7.87;7.20;;;30.60;91.20;;;;;;5033369;28;20905;-76
2022/08/17 12:35:58;;;;;;;7.83;7.33;;;30.60;91.10;;;;;;5034567;28;20486;-76
2022/08/17 12:38:27;;;;;;;8.20;6.73;;;30.60;91.00;;;;;;5034916;28;20419;-76
2022/08/17 12:41:25;;;;;;;7.90;7.33;;;30.70;91.00;;;;;;5034748;28;20423;-77
2022/08/17 12:44:01;;;;;;;7.40;6.80;;;30.70;90.90;;;;;;5033182;28;20545;-76
2022/08/17 12:46:33;;;;;;;6.87;6.27;;;30.70;90.80;;;;;;5034872;28;20816;-77
2022/08/17 12:49:23;;;;;;;8.00;6.57;;;30.70;90.80;;;;;;5033170;28;20824;-77
2022/08/17 12:51:56;;;;;;;8.03;7.23;;;30.70;90.60;;;;;;5034367;28;20455;-77
2022/08/17 12:54:33;;;;;;;8.50;7.90;;;30.70;90.40;;;;;;5034089;28;20499;-77
2022/08/17 12:57:08;;;;;;;7.13;6.63;;;30.80;89.70;;;;;;5034385;28;20455;-77
2022/08/17 12:59:43;;;;;;;7.20;6.70;;;30.80;88.70;;;;;;5034418;28;20429;-77
2022/08/17 13:02:27;;;;;;;6.97;6.37;;;30.80;88.70;;;;;;5032590;28;20449;-76
2022/08/17 13:04:56;;;;;;;7.40;6.90;;;30.90;88.70;;;;;;5032928;28;20462;-76
2022/08/17 13:07:31;;;;;;;6.40;5.80;;;30.90;89.00;;;;;;5034368;28;20470;-77
2022/08/17 13:09:59;;;;;;;6.60;6.10;;;31.00;88.80;;;;;;5032619;28;20444;-77
2022/08/17 13:12:31;;;;;;;6.80;6.40;;;31.00;88.30;;;;;;5034782;28;20534;-76
2022/08/17 13:15:01;;;;;;;7.47;6.87;;;31.00;87.80;;;;;;5033944;28;20438;-76
2022/08/17 13:17:33;;;;;;;7.23;6.63;;;30.90;87.30;;;;;;5032506;28;20557;-76
2022/08/17 13:20:03;;;;;;;6.90;6.37;;;30.80;86.80;;;;;;5034150;28;20455;-77
2022/08/17 13:22:32;;;;;;;14.10;12.70;;;30.80;86.80;;;;;;5033688;28;20912;-77
2022/08/17 13:25:05;;;;;;;9.80;8.90;;;30.70;86.90;;;;;;5034013;28;20459;-78
2022/08/17 13:27:34;;;;;;;8.93;7.83;;;30.70;86.70;;;;;;5032318;28;20473;-75
2022/08/17 13:30:10;;;;;;;7.70;7.10;;;30.70;86.30;;;;;;5032497;28;20500;-77
2022/08/17 13:32:41;;;;;;;9.00;7.90;;;30.70;86.30;;;;;;5034206;28;20419;-77
2022/08/17 13:35:36;;;;;;;9.00;8.30;;;30.80;86.20;;;;;;5033713;28;20455;-77
2022/08/17 13:38:09;;;;;;;7.50;7.00;;;30.90;85.70;;;;;;5033910;28;20795;-76
2022/08/17 13:40:42;;;;;;;6.63;6.13;;;30.90;85.80;;;;;;5033812;28;20426;-75
2022/08/17 13:43:11;;;;;;;6.00;5.57;;;31.00;85.40;;;;;;5034182;28;20415;-76